createdAt,value
2023-01-31T00:00:11.538Z,1000.23
2023-01-31T00:01:11.562Z,1000.24
2023-01-31T00:02:11.570Z,1000.21
2023-01-31T00:03:11.521Z,1000.18
2023-01-31T00:04:11.524Z,1000.18
2023-01-31T00:05:11.491Z,1000.16
2023-01-31T00:06:11.480Z,1000.24
2023-01-31T00:07:11.510Z,1000.18
2023-01-31T00:08:11.452Z,1000.18
2023-01-31T00:09:11.441Z,1000.26
2023-01-31T00:10:11.444Z,1000.28
2023-01-31T00:11:11.437Z,1000.30
2023-01-31T00:12:11.426Z,1000.25
2023-01-31T00:13:11.457Z,1000.22
2023-01-31T00:14:11.477Z,1000.24
2023-01-31T00:15:11.390Z,1000.22
2023-01-31T00:16:11.390Z,1000.20
2023-01-31T00:17:11.362Z,1000.24
2023-01-31T00:18:11.356Z,1000.25
2023-01-31T00:19:11.366Z,1000.15
2023-01-31T00:20:11.331Z,1000.13
2023-01-31T00:21:11.322Z,1000.16
2023-01-31T00:22:11.309Z,1000.12
2023-01-31T00:23:11.315Z,1000.14
2023-01-31T00:24:11.305Z,1000.14
2023-01-31T00:25:11.310Z,1000.12
2023-01-31T00:26:11.371Z,1000.12
2023-01-31T00:27:11.247Z,1000.09
2023-01-31T00:28:11.243Z,1000.10
2023-01-31T00:29:11.271Z,1000.09
2023-01-31T00:30:11.240Z,1000.11
2023-01-31T00:31:11.296Z,1000.17
2023-01-31T00:32:11.248Z,1000.10
2023-01-31T00:33:11.195Z,1000.08
2023-01-31T00:34:11.210Z,1000.06
2023-01-31T00:35:11.167Z,1000.18
2023-01-31T00:36:11.175Z,1000.13
2023-01-31T00:37:11.215Z,1000.17
2023-01-31T00:38:11.156Z,1000.16
2023-01-31T00:39:11.157Z,1000.13
2023-01-31T00:40:11.124Z,1000.10
2023-01-31T00:41:11.110Z,1000.15
2023-01-31T00:42:11.100Z,1000.12
2023-01-31T00:43:11.094Z,1000.13
2023-01-31T00:44:11.114Z,1000.16
2023-01-31T00:45:11.063Z,1000.13
2023-01-31T00:46:11.080Z,1000.10
2023-01-31T00:47:11.058Z,1000.11
2023-01-31T00:48:11.038Z,1000.09
2023-01-31T00:49:11.034Z,1000.10
2023-01-31T00:50:11.044Z,1000.12
2023-01-31T00:51:11.016Z,1000.14
2023-01-31T00:52:11.024Z,1000.04
2023-01-31T00:53:10.992Z,1000.07
2023-01-31T00:54:11.024Z,1000.04
2023-01-31T00:55:10.961Z,1000.13
2023-01-31T00:56:10.958Z,1000.10
2023-01-31T00:57:10.960Z,1000.01
2023-01-31T00:58:10.939Z,1000.05
2023-01-31T00:59:10.936Z,1000.07
2023-01-31T01:00:10.912Z,1000.09
2023-01-31T01:01:10.962Z,1000.03
2023-01-31T01:02:11.006Z,1000.07
2023-01-31T01:03:10.880Z,1000.12
2023-01-31T01:04:10.908Z,1000.02
2023-01-31T01:05:10.890Z,1000.09
2023-01-31T01:06:10.860Z,1000.08
2023-01-31T01:07:10.844Z,1000.04
2023-01-31T01:08:10.830Z,1000.02
2023-01-31T01:09:10.843Z,1000.02
2023-01-31T01:10:10.813Z,1000.02
2023-01-31T01:11:10.807Z,999.97
2023-01-31T01:12:10.797Z,999.99
2023-01-31T01:13:10.768Z,999.99
2023-01-31T01:14:10.788Z,1000.00
2023-01-31T01:15:10.754Z,999.95
2023-01-31T01:16:10.805Z,999.95
2023-01-31T01:17:10.740Z,999.97
2023-01-31T01:18:10.755Z,999.96
2023-01-31T01:19:10.727Z,999.93
2023-01-31T01:20:10.702Z,999.97
2023-01-31T01:21:10.685Z,999.96
2023-01-31T01:22:10.684Z,999.91
2023-01-31T01:23:10.669Z,999.96
2023-01-31T01:24:10.715Z,999.98
2023-01-31T01:25:10.674Z,999.99
2023-01-31T01:26:10.634Z,1000.03
2023-01-31T01:27:10.630Z,1000.05
2023-01-31T01:28:10.627Z,1000.11
2023-01-31T01:29:10.624Z,1000.06
2023-01-31T01:30:10.594Z,1000.11
2023-01-31T01:31:10.716Z,1000.09
2023-01-31T01:32:10.597Z,999.99
2023-01-31T01:33:10.564Z,1000.05
2023-01-31T01:34:10.590Z,1000.01
2023-01-31T01:35:10.541Z,1000.04
2023-01-31T01:36:10.534Z,1000.10
2023-01-31T01:37:10.531Z,1000.04
2023-01-31T01:38:10.536Z,1000.05
2023-01-31T01:39:10.535Z,1000.02
2023-01-31T01:40:10.491Z,999.99
2023-01-31T01:41:10.530Z,1000.01
2023-01-31T01:42:10.470Z,1000.04
2023-01-31T01:43:10.461Z,1000.03
2023-01-31T01:44:10.483Z,1000.00
2023-01-31T01:45:10.447Z,1000.05
2023-01-31T01:46:10.492Z,1000.00
2023-01-31T01:47:10.418Z,1000.07
2023-01-31T01:48:10.409Z,1000.03
2023-01-31T01:49:10.417Z,1000.00
2023-01-31T01:50:10.411Z,999.97
2023-01-31T01:51:10.388Z,999.95
2023-01-31T01:52:10.418Z,999.96
2023-01-31T01:53:10.374Z,999.94
2023-01-31T01:54:10.381Z,999.92
2023-01-31T01:55:10.349Z,999.91
2023-01-31T01:56:10.332Z,1000.01
2023-01-31T01:57:10.344Z,999.94
2023-01-31T01:58:10.328Z,999.94
2023-01-31T01:59:10.320Z,999.95
2023-01-31T02:00:10.301Z,1000.02
2023-01-31T02:01:10.317Z,1000.09
2023-01-31T02:02:10.287Z,1000.09
2023-01-31T02:03:10.296Z,1000.13
2023-01-31T02:04:10.270Z,1000.16
2023-01-31T02:05:10.241Z,1000.17
2023-01-31T02:06:10.257Z,1000.16
2023-01-31T02:07:10.427Z,1000.17
2023-01-31T02:08:10.222Z,1000.09
2023-01-31T02:09:10.204Z,1000.13
2023-01-31T02:10:10.185Z,1000.10
2023-01-31T02:11:10.170Z,1000.11
2023-01-31T02:12:10.497Z,1000.12
2023-01-31T02:13:10.167Z,1000.10
2023-01-31T02:14:10.154Z,1000.04
2023-01-31T02:15:10.130Z,1000.04
2023-01-31T02:16:10.180Z,1000.05
2023-01-31T02:17:10.109Z,1000.07
2023-01-31T02:18:10.116Z,999.99
2023-01-31T02:19:10.118Z,999.98
2023-01-31T02:20:10.106Z,1000.00
2023-01-31T02:21:10.080Z,1000.00
2023-01-31T02:22:10.079Z,999.96
2023-01-31T02:23:10.204Z,1000.04
2023-01-31T02:24:10.092Z,999.98
2023-01-31T02:25:10.889Z,1000.01
2023-01-31T02:26:10.017Z,999.98
2023-01-31T02:27:10.006Z,999.96
2023-01-31T02:28:10.034Z,999.88
2023-01-31T02:29:10.000Z,999.91
2023-01-31T02:30:09.991Z,999.86
2023-01-31T02:31:10.058Z,999.83
2023-01-31T02:32:11.621Z,999.88
2023-01-31T02:33:09.977Z,999.93
2023-01-31T02:34:09.932Z,999.92
2023-01-31T02:35:09.945Z,999.89
2023-01-31T02:36:09.927Z,999.86
2023-01-31T02:37:09.928Z,999.86
2023-01-31T02:38:09.934Z,999.82
2023-01-31T02:39:09.903Z,999.81
2023-01-31T02:40:09.881Z,999.83
2023-01-31T02:41:09.864Z,999.84
2023-01-31T02:42:10.136Z,999.83
2023-01-31T02:43:11.086Z,999.84
2023-01-31T02:44:09.889Z,999.89
2023-01-31T02:45:10.066Z,999.86
2023-01-31T02:46:09.878Z,999.91
2023-01-31T02:47:09.797Z,999.89
2023-01-31T02:48:09.803Z,1000.00
2023-01-31T02:49:09.805Z,1000.02
2023-01-31T02:50:09.773Z,1000.00
2023-01-31T02:51:09.775Z,1000.02
2023-01-31T02:52:09.746Z,1000.08
2023-01-31T02:53:09.746Z,1000.06
2023-01-31T02:54:09.781Z,1000.08
2023-01-31T02:55:09.719Z,1000.04
2023-01-31T02:56:09.723Z,1000.13
2023-01-31T02:57:09.697Z,1000.13
2023-01-31T02:58:09.689Z,1000.12
2023-01-31T02:59:09.696Z,1000.16
2023-01-31T03:00:09.667Z,1000.20
2023-01-31T03:01:09.698Z,1000.19
2023-01-31T03:02:09.668Z,1000.18
2023-01-31T03:03:09.681Z,1000.20
2023-01-31T03:04:09.660Z,1000.11
2023-01-31T03:05:09.628Z,1000.11
2023-01-31T03:06:09.616Z,1000.07
2023-01-31T03:07:09.639Z,1000.08
2023-01-31T03:08:09.587Z,1000.13
2023-01-31T03:09:09.610Z,1000.05
2023-01-31T03:10:09.582Z,1000.05
2023-01-31T03:11:09.560Z,1000.11
2023-01-31T03:12:09.542Z,1000.14
2023-01-31T03:13:09.534Z,1000.12
2023-01-31T03:14:09.545Z,1000.15
2023-01-31T03:15:09.519Z,1000.15
2023-01-31T03:16:09.510Z,1000.15
2023-01-31T03:17:09.502Z,1000.18
2023-01-31T03:18:09.477Z,1000.22
2023-01-31T03:19:09.505Z,1000.25
2023-01-31T03:20:09.459Z,1000.26
2023-01-31T03:21:09.448Z,1000.28
2023-01-31T03:22:09.463Z,1000.19
2023-01-31T03:23:09.435Z,1000.21
2023-01-31T03:24:09.512Z,1000.12
2023-01-31T03:25:09.420Z,1000.19
2023-01-31T03:26:09.414Z,1000.17
2023-01-31T03:27:09.389Z,1000.11
2023-01-31T03:28:09.388Z,1000.15
2023-01-31T03:29:09.404Z,1000.11
2023-01-31T03:30:09.353Z,1000.13
2023-01-31T03:31:09.477Z,1000.18
2023-01-31T03:32:09.335Z,1000.11
2023-01-31T03:33:09.320Z,1000.12
2023-01-31T03:34:09.332Z,1000.21
2023-01-31T03:35:09.337Z,1000.18
2023-01-31T03:36:09.301Z,1000.19
2023-01-31T03:37:09.283Z,1000.20
2023-01-31T03:38:09.271Z,1000.20
2023-01-31T03:39:09.264Z,1000.22
2023-01-31T03:40:09.280Z,1000.25
2023-01-31T03:41:09.243Z,1000.25
2023-01-31T03:42:09.270Z,1000.22
2023-01-31T03:43:09.224Z,1000.25
2023-01-31T03:44:09.207Z,1000.26
2023-01-31T03:45:09.212Z,1000.29
2023-01-31T03:46:09.223Z,1000.28
2023-01-31T03:47:09.180Z,1000.30
2023-01-31T03:48:09.188Z,1000.30
2023-01-31T03:49:09.197Z,1000.28
2023-01-31T03:50:09.149Z,1000.18
2023-01-31T03:51:09.148Z,1000.26
2023-01-31T03:52:09.131Z,1000.20
2023-01-31T03:53:09.122Z,1000.13
2023-01-31T03:54:09.151Z,1000.20
2023-01-31T03:55:09.119Z,1000.15
2023-01-31T03:56:09.115Z,1000.15
2023-01-31T03:57:09.087Z,1000.14
2023-01-31T03:58:09.120Z,1000.15
2023-01-31T03:59:09.092Z,1000.10
2023-01-31T04:00:09.049Z,1000.05
2023-01-31T04:01:09.039Z,1000.08
2023-01-31T04:02:09.062Z,1000.09
2023-01-31T04:03:09.022Z,1000.06
2023-01-31T04:04:09.025Z,1000.03
2023-01-31T04:05:09.020Z,1000.02
2023-01-31T04:06:08.998Z,1000.00
2023-01-31T04:07:08.984Z,999.95
2023-01-31T04:08:08.977Z,999.97
2023-01-31T04:09:08.950Z,999.96
2023-01-31T04:10:08.946Z,999.90
2023-01-31T04:11:08.961Z,999.92
2023-01-31T04:12:08.935Z,999.86
2023-01-31T04:13:08.909Z,999.96
2023-01-31T04:14:08.911Z,999.94
2023-01-31T04:15:08.884Z,999.95
2023-01-31T04:16:08.952Z,999.97
2023-01-31T04:17:08.893Z,1000.01
2023-01-31T04:18:08.859Z,999.98
2023-01-31T04:19:08.863Z,999.99
2023-01-31T04:20:08.844Z,1000.07
2023-01-31T04:21:08.824Z,1000.16
2023-01-31T04:22:08.814Z,1000.11
2023-01-31T04:23:08.824Z,1000.11
2023-01-31T04:24:08.896Z,1000.15
2023-01-31T04:25:08.799Z,1000.16
2023-01-31T04:26:08.780Z,1000.25
2023-01-31T04:27:08.763Z,1000.21
2023-01-31T04:28:08.750Z,1000.26
2023-01-31T04:29:08.777Z,1000.27
2023-01-31T04:30:08.758Z,1000.29
2023-01-31T04:31:08.860Z,1000.32
2023-01-31T04:32:08.766Z,1000.30
2023-01-31T04:33:08.704Z,1000.33
2023-01-31T04:34:09.296Z,1000.41
2023-01-31T04:35:09.064Z,1000.41
2023-01-31T04:36:09.063Z,1000.40
2023-01-31T04:37:08.874Z,1000.41
2023-01-31T04:38:08.811Z,1000.43
2023-01-31T04:39:08.665Z,1000.38
2023-01-31T04:40:08.757Z,1000.36
2023-01-31T04:41:08.634Z,1000.38
2023-01-31T04:42:08.623Z,1000.38
2023-01-31T04:43:08.602Z,1000.39
2023-01-31T04:44:08.604Z,1000.39
2023-01-31T04:45:09.211Z,1000.39
2023-01-31T04:46:09.078Z,1000.40
2023-01-31T04:47:09.020Z,1000.47
2023-01-31T04:48:08.889Z,1000.37
2023-01-31T04:49:08.894Z,1000.44
2023-01-31T04:50:08.621Z,1000.45
2023-01-31T04:51:08.659Z,1000.39
2023-01-31T04:52:08.505Z,1000.41
2023-01-31T04:53:08.506Z,1000.42
2023-01-31T04:54:08.517Z,1000.40
2023-01-31T04:55:08.484Z,1000.50
2023-01-31T04:56:08.496Z,1000.45
2023-01-31T04:57:09.017Z,1000.40
2023-01-31T04:58:08.765Z,1000.36
2023-01-31T04:59:08.840Z,1000.43
2023-01-31T05:00:08.629Z,1000.41
2023-01-31T05:01:08.644Z,1000.38
2023-01-31T05:02:08.480Z,1000.41
2023-01-31T05:03:08.463Z,1000.41
2023-01-31T05:04:08.386Z,1000.40
2023-01-31T05:05:08.369Z,1000.37
2023-01-31T05:06:08.358Z,1000.42
2023-01-31T05:07:08.348Z,1000.50
2023-01-31T05:08:08.372Z,1000.41
2023-01-31T05:09:08.422Z,1000.46
2023-01-31T05:10:08.329Z,1000.42
2023-01-31T05:11:08.700Z,1000.42
2023-01-31T05:12:08.297Z,1000.44
2023-01-31T05:13:08.321Z,1000.41
2023-01-31T05:14:08.294Z,1000.43
2023-01-31T05:15:08.276Z,1000.46
2023-01-31T05:16:08.308Z,1000.48
2023-01-31T05:17:08.249Z,1000.44
2023-01-31T05:18:08.284Z,1000.40
2023-01-31T05:19:08.264Z,1000.41
2023-01-31T05:20:08.213Z,1000.41
2023-01-31T05:21:08.248Z,1000.37
2023-01-31T05:22:08.199Z,1000.32
2023-01-31T05:23:08.193Z,1000.36
2023-01-31T05:24:08.205Z,1000.35
2023-01-31T05:25:08.173Z,1000.35
2023-01-31T05:26:08.165Z,1000.23
2023-01-31T05:27:08.155Z,1000.28
2023-01-31T05:28:08.165Z,1000.25
2023-01-31T05:29:08.142Z,1000.31
2023-01-31T05:30:08.112Z,1000.29
2023-01-31T05:31:08.305Z,1000.29
2023-01-31T05:32:08.151Z,1000.30
2023-01-31T05:33:08.096Z,1000.25
2023-01-31T05:34:08.130Z,1000.26
2023-01-31T05:35:08.074Z,1000.28
2023-01-31T05:36:08.051Z,1000.26
2023-01-31T05:37:08.046Z,1000.28
2023-01-31T05:38:08.046Z,1000.31
2023-01-31T05:39:08.033Z,1000.34
2023-01-31T05:40:08.056Z,1000.30
2023-01-31T05:41:08.005Z,1000.35
2023-01-31T05:42:07.993Z,1000.32
2023-01-31T05:43:07.989Z,1000.34
2023-01-31T05:44:07.968Z,1000.31
2023-01-31T05:45:08.056Z,1000.28
2023-01-31T05:46:07.950Z,1000.22
2023-01-31T05:47:07.977Z,1000.28
2023-01-31T05:48:07.935Z,1000.25
2023-01-31T05:49:07.935Z,1000.21
2023-01-31T05:50:07.936Z,1000.23
2023-01-31T05:51:07.919Z,1000.26
2023-01-31T05:52:07.892Z,1000.36
2023-01-31T05:53:07.880Z,1000.30
2023-01-31T05:54:07.888Z,1000.30
2023-01-31T05:55:07.868Z,1000.33
2023-01-31T05:56:07.889Z,1000.41
2023-01-31T05:57:07.858Z,1000.40
2023-01-31T05:58:07.833Z,1000.39
2023-01-31T05:59:07.842Z,1000.44
2023-01-31T06:00:07.841Z,1000.39
2023-01-31T06:01:07.816Z,1000.41
2023-01-31T06:02:07.860Z,1000.45
2023-01-31T06:03:07.844Z,1000.44
2023-01-31T06:04:07.792Z,1000.46
2023-01-31T06:05:07.792Z,1000.50
2023-01-31T06:06:07.767Z,1000.58
2023-01-31T06:07:07.772Z,1000.50
2023-01-31T06:08:07.738Z,1000.57
2023-01-31T06:09:07.766Z,1000.58
2023-01-31T06:10:07.705Z,1000.64
2023-01-31T06:11:07.721Z,1000.66
2023-01-31T06:12:07.693Z,1000.58
2023-01-31T06:13:07.690Z,1000.55
2023-01-31T06:14:07.689Z,1000.64
2023-01-31T06:15:07.679Z,1000.69
2023-01-31T06:16:07.667Z,1000.68
2023-01-31T06:17:07.651Z,1000.70
2023-01-31T06:18:07.620Z,1000.71
2023-01-31T06:19:07.638Z,1000.73
2023-01-31T06:20:07.646Z,1000.70
2023-01-31T06:21:07.618Z,1000.74
2023-01-31T06:22:07.670Z,1000.74
2023-01-31T06:23:07.626Z,1000.75
2023-01-31T06:24:07.601Z,1000.79
2023-01-31T06:25:07.559Z,1000.77
2023-01-31T06:26:07.565Z,1000.76
2023-01-31T06:27:07.549Z,1000.80
2023-01-31T06:28:07.528Z,1000.83
2023-01-31T06:29:07.610Z,1000.78
2023-01-31T06:30:07.523Z,1000.80
2023-01-31T06:31:07.665Z,1000.80
2023-01-31T06:32:07.481Z,1000.83
2023-01-31T06:33:07.479Z,1000.87
2023-01-31T06:34:07.479Z,1000.86
2023-01-31T06:35:07.473Z,1000.85
2023-01-31T06:36:07.447Z,1000.84
2023-01-31T06:37:07.451Z,1000.85
2023-01-31T06:38:07.435Z,1000.88
2023-01-31T06:39:07.492Z,1000.85
2023-01-31T06:40:07.415Z,1000.91
2023-01-31T06:41:07.387Z,1000.86
2023-01-31T06:42:07.385Z,1000.83
2023-01-31T06:43:07.399Z,1000.87
2023-01-31T06:44:07.384Z,1000.84
2023-01-31T06:45:07.364Z,1000.79
2023-01-31T06:46:07.389Z,1000.81
2023-01-31T06:47:07.353Z,1000.75
2023-01-31T06:48:07.371Z,1000.78
2023-01-31T06:49:07.319Z,1000.81
2023-01-31T06:50:07.316Z,1000.87
2023-01-31T06:51:07.311Z,1000.89
2023-01-31T06:52:07.315Z,1000.91
2023-01-31T06:53:07.278Z,1000.90
2023-01-31T06:54:07.311Z,1000.90
2023-01-31T06:55:07.254Z,1000.84
2023-01-31T06:56:07.247Z,1000.87
2023-01-31T06:57:07.247Z,1000.85
2023-01-31T06:58:07.221Z,1000.88
2023-01-31T06:59:07.269Z,1000.87
2023-01-31T07:00:07.218Z,1000.87
2023-01-31T07:01:07.204Z,1000.86
2023-01-31T07:02:07.191Z,1000.84
2023-01-31T07:03:07.179Z,1000.81
2023-01-31T07:04:07.179Z,1000.79
2023-01-31T07:05:07.204Z,1000.79
2023-01-31T07:06:07.149Z,1000.80
2023-01-31T07:07:07.156Z,1000.82
2023-01-31T07:08:07.116Z,1000.81
2023-01-31T07:09:07.126Z,1000.84
2023-01-31T07:10:07.134Z,1000.79
2023-01-31T07:11:07.123Z,1000.83
2023-01-31T07:12:07.087Z,1000.79
2023-01-31T07:13:07.071Z,1000.78
2023-01-31T07:14:07.080Z,1000.73
2023-01-31T07:15:07.049Z,1000.74
2023-01-31T07:16:07.267Z,1000.74
2023-01-31T07:17:07.027Z,1000.77
2023-01-31T07:18:07.021Z,1000.80
2023-01-31T07:19:07.074Z,1000.78
2023-01-31T07:20:07.000Z,1000.71
2023-01-31T07:21:06.988Z,1000.78
2023-01-31T07:22:06.982Z,1000.76
2023-01-31T07:23:07.061Z,1000.81
2023-01-31T07:24:06.971Z,1000.83
2023-01-31T07:25:06.962Z,1000.80
2023-01-31T07:26:06.982Z,1000.80
2023-01-31T07:27:06.970Z,1000.75
2023-01-31T07:28:06.932Z,1000.76
2023-01-31T07:29:06.925Z,1000.79
2023-01-31T07:30:06.906Z,1000.79
2023-01-31T07:31:06.876Z,1000.79
2023-01-31T07:32:06.883Z,1000.84
2023-01-31T07:33:06.904Z,1000.76
2023-01-31T07:34:06.878Z,1000.78
2023-01-31T07:35:06.855Z,1000.82
2023-01-31T07:36:06.867Z,1000.85
2023-01-31T07:37:06.834Z,1000.88
2023-01-31T07:38:06.809Z,1000.83
2023-01-31T07:39:06.826Z,1000.86
2023-01-31T07:40:06.817Z,1000.89
2023-01-31T07:41:06.778Z,1000.93
2023-01-31T07:42:06.793Z,1000.91
2023-01-31T07:43:06.906Z,1000.95
2023-01-31T07:44:06.764Z,1000.88
2023-01-31T07:45:21.935Z,1000.96
2023-01-31T07:46:07.821Z,1000.97
2023-01-31T07:47:06.713Z,1000.98
2023-01-31T07:48:06.712Z,1000.94
2023-01-31T07:49:06.705Z,1001.00
2023-01-31T07:50:06.725Z,1000.95
2023-01-31T07:51:06.707Z,1001.01
2023-01-31T07:52:08.508Z,1001.00
2023-01-31T07:53:06.663Z,1000.98
2023-01-31T07:54:06.642Z,1000.98
2023-01-31T07:55:06.658Z,1000.94
2023-01-31T07:56:06.634Z,1000.96
2023-01-31T07:57:06.613Z,1000.90
2023-01-31T07:58:06.620Z,1000.92
2023-01-31T07:59:06.649Z,1000.93
2023-01-31T08:00:06.580Z,1000.92
2023-01-31T08:01:06.604Z,1000.89
2023-01-31T08:02:06.569Z,1000.88
2023-01-31T08:03:06.551Z,1000.98
2023-01-31T08:04:20.134Z,1000.95
2023-01-31T08:05:07.552Z,1000.98
2023-01-31T08:06:06.556Z,1001.02
2023-01-31T08:07:06.575Z,1001.01
2023-01-31T08:08:06.617Z,1001.04
2023-01-31T08:09:06.490Z,1001.07
2023-01-31T08:10:06.489Z,1000.99
2023-01-31T08:11:06.538Z,1000.94
2023-01-31T08:12:06.471Z,1001.04
2023-01-31T08:13:06.454Z,1000.98
2023-01-31T08:14:06.487Z,1001.05
2023-01-31T08:15:06.443Z,1001.03
2023-01-31T08:16:06.417Z,1001.05
2023-01-31T08:17:06.456Z,1001.07
2023-01-31T08:18:06.763Z,1001.10
2023-01-31T08:19:06.393Z,1001.10
2023-01-31T08:20:06.376Z,1001.14
2023-01-31T08:21:06.362Z,1001.16
2023-01-31T08:22:06.350Z,1001.08
2023-01-31T08:23:06.339Z,1001.03
2023-01-31T08:24:06.343Z,1001.02
2023-01-31T08:25:06.333Z,1000.97
2023-01-31T08:26:06.317Z,1000.94
2023-01-31T08:27:06.352Z,1000.93
2023-01-31T08:28:06.295Z,1000.97
2023-01-31T08:29:06.292Z,1000.95
2023-01-31T08:30:06.287Z,1000.99
2023-01-31T08:31:09.308Z,1000.90
2023-01-31T08:32:06.267Z,1000.89
2023-01-31T08:33:06.276Z,1000.85
2023-01-31T08:34:06.236Z,1000.86
2023-01-31T08:35:06.215Z,1000.88
2023-01-31T08:36:06.209Z,1000.91
2023-01-31T08:37:06.267Z,1000.85
2023-01-31T08:38:15.997Z,1000.80
2023-01-31T08:39:07.263Z,1000.81
2023-01-31T08:40:06.166Z,1000.78
2023-01-31T08:41:06.151Z,1000.74
2023-01-31T08:42:06.151Z,1000.82
2023-01-31T08:43:06.143Z,1000.72
2023-01-31T08:44:06.170Z,1000.77
2023-01-31T08:45:06.117Z,1000.77
2023-01-31T08:46:06.113Z,1000.72
2023-01-31T08:47:06.089Z,1000.77
2023-01-31T08:48:06.076Z,1000.70
2023-01-31T08:49:06.115Z,1000.71
2023-01-31T08:50:15.898Z,1000.69
2023-01-31T08:51:07.045Z,1000.72
2023-01-31T08:52:06.030Z,1000.69
2023-01-31T08:53:06.021Z,1000.82
2023-01-31T08:54:06.031Z,1000.80
2023-01-31T08:55:06.001Z,1000.88
2023-01-31T08:56:07.785Z,1000.80
2023-01-31T08:57:06.018Z,1000.81
2023-01-31T08:58:05.977Z,1000.88
2023-01-31T08:59:06.030Z,1000.80
2023-01-31T09:00:05.952Z,1000.84
2023-01-31T09:01:05.985Z,1000.88
2023-01-31T09:02:05.970Z,1000.80
2023-01-31T09:03:06.002Z,1000.84
2023-01-31T09:04:05.924Z,1000.87
2023-01-31T09:05:05.895Z,1000.88
2023-01-31T09:06:05.909Z,1000.87
2023-01-31T09:07:05.872Z,1000.84
2023-01-31T09:08:05.864Z,1000.88
2023-01-31T09:09:05.866Z,1000.83
2023-01-31T09:10:05.841Z,1000.91
2023-01-31T09:11:05.831Z,1000.90
2023-01-31T09:12:05.821Z,1000.87
2023-01-31T09:13:05.814Z,1000.91
2023-01-31T09:14:05.823Z,1000.89
2023-01-31T09:15:05.793Z,1000.86
2023-01-31T09:16:05.779Z,1000.88
2023-01-31T09:17:05.782Z,1000.97
2023-01-31T09:18:05.796Z,1000.94
2023-01-31T09:19:05.785Z,1000.95
2023-01-31T09:20:05.735Z,1000.90
2023-01-31T09:21:05.738Z,1000.96
2023-01-31T09:22:05.721Z,1000.96
2023-01-31T09:23:05.702Z,1000.89
2023-01-31T09:24:05.713Z,1000.89
2023-01-31T09:25:05.693Z,1000.85
2023-01-31T09:26:05.669Z,1000.88
2023-01-31T09:27:05.660Z,1000.83
2023-01-31T09:28:05.665Z,1000.87
2023-01-31T09:29:05.656Z,1000.86
2023-01-31T09:30:05.624Z,1000.82
2023-01-31T09:31:05.742Z,1000.78
2023-01-31T09:32:05.612Z,1000.80
2023-01-31T09:33:05.595Z,1000.75
2023-01-31T09:34:05.921Z,1000.72
2023-01-31T09:35:05.572Z,1000.75
2023-01-31T09:36:05.581Z,1000.76
2023-01-31T09:37:05.551Z,1000.72
2023-01-31T09:38:05.538Z,1000.77
2023-01-31T09:39:05.584Z,1000.73
2023-01-31T09:40:05.522Z,1000.65
2023-01-31T09:41:05.514Z,1000.68
2023-01-31T09:42:06.357Z,1000.63
2023-01-31T09:43:05.491Z,1000.67
2023-01-31T09:44:05.496Z,1000.70
2023-01-31T09:45:05.468Z,1000.64
2023-01-31T09:46:05.480Z,1000.66
2023-01-31T09:47:05.607Z,1000.65
2023-01-31T09:48:05.439Z,1000.61
2023-01-31T09:49:05.423Z,1000.65
2023-01-31T09:50:05.435Z,1000.70
2023-01-31T09:51:05.398Z,1000.70
2023-01-31T09:52:05.407Z,1000.69
2023-01-31T09:53:05.390Z,1000.73
2023-01-31T09:54:05.369Z,1000.66
2023-01-31T09:55:05.356Z,1000.73
2023-01-31T09:56:05.347Z,1000.68
2023-01-31T09:57:05.355Z,1000.73
2023-01-31T09:58:05.325Z,1000.73
2023-01-31T09:59:05.337Z,1000.74
2023-01-31T10:00:05.302Z,1000.80
2023-01-31T10:01:05.378Z,1000.73
2023-01-31T10:02:05.291Z,1000.72
2023-01-31T10:03:05.272Z,1000.70
2023-01-31T10:04:05.327Z,1000.77
2023-01-31T10:05:05.250Z,1000.79
2023-01-31T10:06:05.292Z,1000.75
2023-01-31T10:07:05.239Z,1000.81
2023-01-31T10:08:05.219Z,1000.75
2023-01-31T10:09:05.227Z,1000.81
2023-01-31T10:10:05.205Z,1000.82
2023-01-31T10:11:05.183Z,1000.76
2023-01-31T10:12:05.216Z,1000.78
2023-01-31T10:13:05.183Z,1000.79
2023-01-31T10:14:05.185Z,1000.78
2023-01-31T10:15:05.140Z,1000.89
2023-01-31T10:16:05.131Z,1000.85
2023-01-31T10:17:05.307Z,1000.88
2023-01-31T10:18:05.135Z,1000.90
2023-01-31T10:19:05.150Z,1000.85
2023-01-31T10:20:05.089Z,1000.94
2023-01-31T10:21:05.393Z,1000.93
2023-01-31T10:22:05.086Z,1000.96
2023-01-31T10:23:05.104Z,1000.87
2023-01-31T10:24:05.063Z,1000.88
2023-01-31T10:25:05.077Z,1000.86
2023-01-31T10:26:05.024Z,1000.85
2023-01-31T10:27:05.010Z,1000.89
2023-01-31T10:28:05.005Z,1000.82
2023-01-31T10:29:05.012Z,1000.92
2023-01-31T10:30:04.979Z,1000.89
2023-01-31T10:31:05.026Z,1000.82
2023-01-31T10:32:05.069Z,1000.82
2023-01-31T10:33:04.945Z,1000.79
2023-01-31T10:34:04.971Z,1000.75
2023-01-31T10:35:04.923Z,1000.79
2023-01-31T10:36:04.915Z,1000.82
2023-01-31T10:37:04.907Z,1000.75
2023-01-31T10:38:04.920Z,1000.66
2023-01-31T10:39:04.911Z,1000.74
2023-01-31T10:40:04.875Z,1000.73
2023-01-31T10:41:04.867Z,1000.72
2023-01-31T10:42:04.854Z,1000.62
2023-01-31T10:43:04.846Z,1000.65
2023-01-31T10:44:04.844Z,1000.57
2023-01-31T10:45:04.813Z,1000.54
2023-01-31T10:46:04.850Z,1000.48
2023-01-31T10:47:04.795Z,1000.56
2023-01-31T10:48:04.785Z,1000.44
2023-01-31T10:49:04.834Z,1000.43
2023-01-31T10:50:04.766Z,1000.53
2023-01-31T10:51:04.751Z,1000.50
2023-01-31T10:52:04.764Z,1000.54
2023-01-31T10:53:04.731Z,1000.62
2023-01-31T10:54:04.788Z,1000.56
2023-01-31T10:55:04.740Z,1000.61
2023-01-31T10:56:04.701Z,1000.59
2023-01-31T10:57:04.686Z,1000.63
2023-01-31T10:58:06.206Z,1000.64
2023-01-31T10:59:04.669Z,1000.66
2023-01-31T11:00:04.656Z,1000.70
2023-01-31T11:01:04.719Z,1000.80
2023-01-31T11:02:04.678Z,1000.82
2023-01-31T11:03:05.096Z,1000.89
2023-01-31T11:04:04.621Z,1000.84
2023-01-31T11:05:04.598Z,1000.83
2023-01-31T11:06:04.592Z,1000.83
2023-01-31T11:07:04.617Z,1000.88
2023-01-31T11:08:04.569Z,1000.86
2023-01-31T11:09:04.582Z,1000.83
2023-01-31T11:10:04.601Z,1000.79
2023-01-31T11:11:04.576Z,1000.75
2023-01-31T11:12:04.527Z,1000.73
2023-01-31T11:13:04.674Z,1000.79
2023-01-31T11:14:04.526Z,1000.79
2023-01-31T11:15:04.504Z,1000.71
2023-01-31T11:16:04.522Z,1000.74
2023-01-31T11:17:04.469Z,1000.67
2023-01-31T11:18:04.469Z,1000.65
2023-01-31T11:19:04.519Z,1000.52
2023-01-31T11:20:04.439Z,1000.56
2023-01-31T11:21:04.437Z,1000.51
2023-01-31T11:22:04.436Z,1000.49
2023-01-31T11:23:04.416Z,1000.50
2023-01-31T11:24:05.058Z,1000.53
2023-01-31T11:25:04.385Z,1000.48
2023-01-31T11:26:04.392Z,1000.52
2023-01-31T11:27:04.370Z,1000.59
2023-01-31T11:28:04.361Z,1000.59
2023-01-31T11:29:04.354Z,1000.56
2023-01-31T11:30:04.352Z,1000.63
2023-01-31T11:31:04.326Z,1000.59
2023-01-31T11:32:04.391Z,1000.61
2023-01-31T11:33:04.306Z,1000.60
2023-01-31T11:34:04.319Z,1000.57
2023-01-31T11:35:04.292Z,1000.62
2023-01-31T11:36:04.290Z,1000.66
2023-01-31T11:37:04.259Z,1000.69
2023-01-31T11:38:04.249Z,1000.61
2023-01-31T11:39:04.263Z,1000.59
2023-01-31T11:40:04.250Z,1000.55
2023-01-31T11:41:04.242Z,1000.57
2023-01-31T11:42:04.230Z,1000.48
2023-01-31T11:43:04.198Z,1000.47
2023-01-31T11:44:04.317Z,1000.49
2023-01-31T11:45:04.184Z,1000.54
2023-01-31T11:46:04.253Z,1000.53
2023-01-31T11:47:04.156Z,1000.46
2023-01-31T11:48:04.192Z,1000.46
2023-01-31T11:49:04.131Z,1000.36
2023-01-31T11:50:04.137Z,1000.33
2023-01-31T11:51:04.121Z,1000.44
2023-01-31T11:52:04.125Z,1000.46
2023-01-31T11:53:04.087Z,1000.53
2023-01-31T11:54:04.099Z,1000.48
2023-01-31T11:55:04.095Z,1000.43
2023-01-31T11:56:04.067Z,1000.42
2023-01-31T11:57:04.043Z,1000.31
2023-01-31T11:58:04.060Z,1000.34
2023-01-31T11:59:04.027Z,1000.36
2023-01-31T12:00:04.037Z,1000.45
2023-01-31T12:01:04.032Z,1000.36
2023-01-31T12:02:04.032Z,1000.25
2023-01-31T12:03:05.630Z,1000.13
2023-01-31T12:04:04.538Z,1000.08
2023-01-31T12:05:03.960Z,1000.03
2023-01-31T12:06:03.960Z,1000.00
2023-01-31T12:07:03.970Z,999.90